Time;durP1;ratioP1;P1;durP2;ratioP2;P2;SDS_P1;SDS_P2;PMS_P1;PMS_P2;Temp;Humidity;BMP_temperature;BMP_pressure;BME280_temperature;BME280_humidity;BME280_pressure;Samples;Min_cycle;Max_cycle;Signal;HPM_P1;HPM_P2
2022/05/26 00:00:10;;;;;;;2.60;1.33;;;;;;;19.80;65.59;98420.41;5436242;26;20055;-77
2022/05/26 00:02:37;;;;;;;2.70;1.42;;;;;;;19.77;65.08;98429.28;5436716;26;20097;-77
2022/05/26 00:05:05;;;;;;;4.93;1.70;;;;;;;20.08;64.37;98432.25;5397359;26;20059;-77
2022/05/26 00:07:32;;;;;;;4.68;1.70;;;;;;;20.21;63.57;98428.59;5436058;26;20086;-77
2022/05/26 00:09:58;;;;;;;2.87;1.40;;;;;;;20.11;63.74;98435.50;5436443;26;20077;-77
2022/05/26 00:12:26;;;;;;;3.30;1.60;;;;;;;20.18;63.12;98446.31;5436407;26;20065;-77
2022/05/26 00:14:55;;;;;;;4.28;1.70;;;;;;;19.80;64.43;98434.31;5436337;26;20093;-77
2022/05/26 00:17:22;;;;;;;4.55;1.50;;;;;;;20.16;63.14;98435.12;5436428;26;20059;-77
2022/05/26 00:19:49;;;;;;;5.07;1.70;;;;;;;19.89;63.80;98435.44;5435968;26;20063;-77
2022/05/26 00:22:17;;;;;;;2.50;1.50;;;;;;;19.71;64.59;98440.25;5436573;26;20436;-77
2022/05/26 00:24:44;;;;;;;2.70;1.40;;;;;;;18.91;67.56;98441.66;5429824;26;173662;-77
2022/05/26 00:27:12;;;;;;;4.53;1.75;;;;;;;18.94;67.24;98436.22;5436751;26;20063;-77
2022/05/26 00:29:39;;;;;;;2.60;1.55;;;;;;;19.72;64.43;98439.28;5437317;26;20169;-77
2022/05/26 00:32:07;;;;;;;4.85;1.67;;;;;;;19.13;66.00;98433.13;5437574;26;20130;-77
2022/05/26 00:34:34;;;;;;;4.53;1.65;;;;;;;19.94;63.21;98434.12;5436949;26;20082;-77
2022/05/26 00:37:02;;;;;;;5.37;1.50;;;;;;;20.88;59.52;98432.22;5437542;26;20114;-77
2022/05/26 00:39:29;;;;;;;2.80;1.52;;;;;;;20.90;58.65;98432.94;5412591;26;20107;-77
2022/05/26 00:42:00;;;;;;;2.08;1.40;;;;;;;21.20;57.96;98432.28;5414650;26;20053;-77
2022/05/26 00:44:28;;;;;;;3.58;1.52;;;;;;;20.83;58.59;98437.81;5415552;26;20130;-77
2022/05/26 00:47:12;;;;;;;3.83;1.70;;;;;;;20.71;59.30;98444.03;5414645;26;20087;-77
2022/05/26 00:50:15;;;;;;;4.75;1.55;;;;;;;21.43;55.90;98440.97;5413928;26;20110;-77
2022/05/26 00:52:45;;;;;;;4.35;1.62;;;;;;;20.97;56.62;98450.69;5377750;26;20197;-77
2022/05/26 00:55:21;;;;;;;2.55;1.37;;;;;;;20.08;59.69;98456.66;5412580;26;20127;-77
2022/05/26 00:57:54;;;;;;;1.90;1.27;;;;;;;20.19;59.96;98466.31;5414454;26;20063;-77
2022/05/26 01:00:23;;;;;;;2.95;1.52;;;;;;;19.91;60.72;98463.16;5413018;26;20141;-77
2022/05/26 01:03:11;;;;;;;3.20;1.40;;;;;;;19.93;60.79;98469.13;5414037;26;20370;-77
2022/05/26 01:05:46;;;;;;;5.37;1.40;;;;;;;20.23;60.10;98473.84;5414570;26;20059;-77
2022/05/26 01:08:37;;;;;;;3.28;1.33;;;;;;;20.11;59.70;98466.91;5414454;26;20458;-77
2022/05/26 01:11:04;;;;;;;2.47;1.20;;;;;;;19.97;59.94;98453.16;5413108;26;20150;-77
2022/05/26 01:13:32;;;;;;;5.47;1.50;;;;;;;20.51;57.97;98462.13;5414314;26;20047;-77
2022/05/26 01:16:11;;;;;;;2.97;1.42;;;;;;;20.13;59.01;98464.19;5412590;26;20538;-77
2022/05/26 01:18:41;;;;;;;5.37;1.52;;;;;;;19.79;59.82;98465.88;5414316;26;20429;-77
2022/05/26 01:21:13;;;;;;;2.70;1.42;;;;;;;19.98;59.18;98462.69;5414344;26;20367;-77
2022/05/26 01:24:07;;;;;;;4.82;1.30;;;;;;;20.18;57.62;98468.09;5414052;26;20046;-77
2022/05/26 01:27:21;;;;;;;1.92;1.20;;;;;;;20.01;57.77;98465.09;5413143;26;20126;-77
2022/05/26 01:30:14;;;;;;;2.00;1.30;;;;;;;19.29;59.27;98455.47;5412337;26;20083;-77
2022/05/26 01:32:54;;;;;;;2.00;1.20;;;;;;;18.97;60.91;98455.13;5414512;26;20057;-77
2022/05/26 01:35:30;;;;;;;6.55;1.42;;;;;;;18.80;61.42;98458.09;5414397;26;20049;-77
2022/05/26 01:38:09;;;;;;;2.50;1.20;;;;;;;18.89;61.29;98464.47;5416503;26;20128;-77
2022/05/26 01:40:46;;;;;;;5.85;1.40;;;;;;;20.00;58.07;98459.03;5416744;26;20059;-77
2022/05/26 01:43:24;;;;;;;;;;;;;;;20.02;57.65;98462.37;5437821;26;20083;-77
2022/05/26 01:45:59;;;;;;;3.00;1.50;;;;;;;20.47;55.54;98470.34;5437064;26;19947;-77
2022/05/26 01:48:40;;;;;;;2.83;1.25;;;;;;;19.50;58.57;98466.16;5437148;26;20066;-77
2022/05/26 01:51:16;;;;;;;4.40;1.30;;;;;;;19.86;57.41;98474.91;5436738;26;20107;-77
2022/05/26 01:53:59;;;;;;;4.12;1.25;;;;;;;18.87;60.77;98464.56;5416793;26;20057;-77
2022/05/26 01:56:35;;;;;;;3.17;1.23;;;;;;;19.16;60.06;98472.16;5437411;26;20052;-77
2022/05/26 01:59:07;;;;;;;2.15;1.37;;;;;;;19.36;59.91;98475.03;5416336;26;20065;-77
2022/05/26 02:01:37;;;;;;;3.05;1.37;;;;;;;19.67;58.95;98477.19;5416853;26;20065;-77
2022/05/26 02:04:10;;;;;;;3.37;1.42;;;;;;;19.44;59.85;98473.62;5417049;26;20074;-77
2022/05/26 02:06:40;;;;;;;3.62;1.25;;;;;;;20.16;57.59;98482.28;5436836;26;20058;-77
2022/05/26 02:09:10;;;;;;;2.22;1.35;;;;;;;20.84;55.29;98493.72;5416774;26;20397;-77
2022/05/26 02:11:43;;;;;;;2.47;1.37;;;;;;;20.21;57.19;98488.88;5416846;26;20069;-77
2022/05/26 02:14:21;;;;;;;2.15;1.33;;;;;;;20.46;56.56;98498.34;5416744;26;20453;-77
2022/05/26 02:16:51;;;;;;;3.62;1.20;;;;;;;20.57;55.99;98499.31;5416854;26;20464;-77
2022/05/26 02:19:22;;;;;;;2.87;1.45;;;;;;;20.54;56.22;98500.41;5436849;26;20074;-77
2022/05/26 02:22:01;;;;;;;4.90;1.25;;;;;;;20.46;56.66;98502.75;5416847;26;20122;-77
2022/05/26 02:24:33;;;;;;;3.67;1.30;;;;;;;20.29;57.03;98506.59;5437223;26;20554;-77
2022/05/26 02:27:00;;;;;;;5.15;1.55;;;;;;;21.09;54.76;98506.63;5416443;26;20067;-77
2022/05/26 02:32:15;;;;;;;2.70;1.42;;;;;;;20.72;55.80;98508.63;5420022;26;20062;-77
2022/05/26 02:34:44;;;;;;;8.93;1.60;;;;;;;19.92;58.62;98516.38;5436733;26;20588;-77
2022/05/26 02:37:12;;;;;;;3.22;1.60;;;;;;;19.60;60.22;98519.56;5416929;26;20094;-77
2022/05/26 02:39:39;;;;;;;2.40;1.40;;;;;;;19.87;59.43;98523.72;5416299;26;20059;-77
2022/05/26 02:42:07;;;;;;;3.70;1.50;;;;;;;19.71;59.89;98528.41;5436869;26;20054;-77
2022/05/26 02:44:34;;;;;;;3.45;1.80;;;;;;;19.73;60.25;98519.50;5416686;26;20466;-77
2022/05/26 02:47:18;;;;;;;5.07;1.85;;;;;;;19.89;59.69;98527.09;5436736;26;20098;-78
2022/05/26 02:50:18;;;;;;;7.05;2.12;;;;;;;19.47;61.39;98517.91;5436973;26;20115;-77
2022/05/26 02:53:18;;;;;;;4.22;2.05;;;;;;;18.86;63.33;98522.19;5416901;26;20055;-77
2022/05/26 02:56:11;;;;;;;4.80;2.12;;;;;;;19.42;61.71;98514.75;5436626;26;20126;-77
2022/05/26 02:59:02;;;;;;;6.32;2.37;;;;;;;20.54;57.86;98515.28;5437040;26;20090;-77
2022/05/26 03:01:38;;;;;;;5.00;2.03;;;;;;;20.69;57.26;98519.34;5436584;26;20121;-77
2022/05/26 03:04:12;;;;;;;3.80;2.05;;;;;;;20.80;56.50;98532.47;5437133;26;20054;-77
2022/05/26 03:06:52;;;;;;;4.65;2.28;;;;;;;20.82;55.89;98537.59;5416687;26;20061;-77
2022/05/26 03:09:20;;;;;;;4.90;2.30;;;;;;;20.54;56.85;98536.25;5416121;26;20070;-77
2022/05/26 03:11:56;;;;;;;5.25;2.60;;;;;;;20.33;57.52;98533.44;5436937;26;20311;-77
2022/05/26 03:14:26;;;;;;;5.72;2.50;;;;;;;20.19;58.26;98529.19;5436976;26;20405;-77
2022/05/26 03:16:53;;;;;;;7.32;2.40;;;;;;;20.85;56.40;98535.59;5436662;26;20114;-77
2022/05/26 03:19:20;;;;;;;8.57;2.50;;;;;;;21.37;54.40;98539.41;5436691;26;20070;-77
2022/05/26 03:21:47;;;;;;;5.07;2.20;;;;;;;20.11;57.92;98542.06;5436985;26;20134;-77
2022/05/26 03:24:17;;;;;;;7.12;2.35;;;;;;;20.30;58.05;98542.34;5437070;26;20175;-77
2022/05/26 03:26:44;;;;;;;4.82;2.33;;;;;;;20.74;56.78;98553.94;5436950;26;20556;-77
2022/05/26 03:29:11;;;;;;;7.37;2.53;;;;;;;20.35;58.41;98553.31;5436982;26;20122;-78
2022/05/26 03:31:37;;;;;;;4.57;2.33;;;;;;;20.21;58.93;98553.53;5437628;26;20457;-77
2022/05/26 03:42:21;;;;;;;6.60;2.45;;;;;;;20.21;59.34;98546.50;5436785;26;20467;-77
2022/05/26 03:44:48;;;;;;;4.15;2.22;;;;;;;21.71;55.10;98552.50;5415931;26;20777;-77
2022/05/26 03:47:15;;;;;;;5.20;2.20;;;;;;;20.78;57.80;98571.09;5436810;26;20533;-77
2022/05/26 03:49:42;;;;;;;4.35;2.20;;;;;;;21.18;57.47;98571.50;5436486;26;20095;-77
2022/05/26 03:52:09;;;;;;;6.47;2.28;;;;;;;22.01;54.62;98571.03;5436304;26;20401;-77
2022/05/26 03:54:36;;;;;;;5.55;2.50;;;;;;;22.55;52.76;98570.13;5436676;26;20118;-77
2022/05/26 03:57:04;;;;;;;6.12;2.50;;;;;;;22.64;51.91;98579.00;5436226;26;20047;-78
2022/05/26 03:59:32;;;;;;;4.20;2.30;;;;;;;23.45;50.38;98575.56;5436350;26;20099;-78
2022/05/26 04:01:59;;;;;;;3.80;2.08;;;;;;;24.12;49.08;98580.16;5437222;26;20468;-78
2022/05/26 04:04:27;;;;;;;4.03;2.10;;;;;;;24.79;46.82;98581.97;5437220;26;20474;-78
2022/05/26 04:06:54;;;;;;;3.87;2.12;;;;;;;25.62;44.66;98592.66;5437625;26;20504;-78
2022/05/26 04:09:21;;;;;;;4.05;2.00;;;;;;;25.81;44.67;98589.09;5437358;26;20412;-78
2022/05/26 04:11:47;;;;;;;4.57;1.87;;;;;;;25.50;44.43;98588.56;5437123;26;20102;-78
2022/05/26 04:14:14;;;;;;;3.22;1.90;;;;;;;26.54;42.57;98587.19;5437552;26;20130;-78
2022/05/26 04:16:42;;;;;;;2.95;1.60;;;;;;;26.69;41.58;98585.66;5437704;26;20103;-78
2022/05/26 04:19:10;;;;;;;4.43;1.70;;;;;;;27.48;39.88;98600.53;5436924;26;20051;-78
2022/05/26 04:22:14;;;;;;;3.95;1.80;;;;;;;28.49;38.35;98605.78;5437609;26;20110;-78
2022/05/26 04:24:24;;;;;;;5.57;1.80;;;;;;;29.16;37.76;98606.44;5437647;26;20415;-78
2022/05/26 04:26:51;;;;;;;2.87;1.67;;;;;;;29.58;36.44;98597.34;5437174;26;20061;-78
2022/05/26 04:29:23;;;;;;;4.80;2.05;;;;;;;30.07;34.63;98600.59;5437502;26;20058;-78
2022/05/26 04:31:50;;;;;;;5.55;2.28;;;;;;;30.70;34.42;98596.81;5437538;26;20106;-78
2022/05/26 04:34:18;;;;;;;3.75;1.80;;;;;;;31.24;32.92;98607.28;5437076;26;20067;-78
2022/05/26 04:36:46;;;;;;;3.03;1.67;;;;;;;31.83;32.00;98612.63;5417148;26;20118;-78
2022/05/26 04:39:14;;;;;;;2.42;1.50;;;;;;;32.17;30.63;98605.78;5436823;26;20102;-78
2022/05/26 04:41:42;;;;;;;2.08;1.37;;;;;;;32.48;29.72;98602.84;5437486;26;20047;-78
2022/05/26 04:44:13;;;;;;;3.62;1.50;;;;;;;30.57;33.29;98603.72;5437485;26;20128;-78
2022/05/26 04:46:40;;;;;;;4.05;1.50;;;;;;;31.64;31.37;98611.31;5437115;26;20418;-78
2022/05/26 04:49:08;;;;;;;2.47;1.50;;;;;;;31.15;32.48;98605.69;5437461;26;20094;-78
2022/05/26 04:51:37;;;;;;;4.03;1.60;;;;;;;30.78;33.11;98617.22;5437466;26;20075;-77
2022/05/26 04:54:06;;;;;;;3.95;1.60;;;;;;;31.92;31.26;98622.16;5437101;26;20109;-79
2022/05/26 04:56:33;;;;;;;3.08;1.48;;;;;;;31.22;32.26;98625.31;5437420;26;20095;-78
2022/05/26 04:59:00;;;;;;;3.42;1.60;;;;;;;32.99;29.47;98632.06;5437179;26;20103;-78
2022/05/26 05:01:27;;;;;;;4.20;1.52;;;;;;;33.21;29.25;98628.31;5437051;26;20079;-78
2022/05/26 05:03:55;;;;;;;4.20;1.60;;;;;;;34.17;28.73;98641.78;5437416;26;20115;-78
2022/05/26 05:06:22;;;;;;;3.25;1.60;;;;;;;35.05;26.81;98640.66;5437458;26;20411;-77
2022/05/26 05:08:49;;;;;;;2.00;1.40;;;;;;;35.55;26.40;98643.69;5436779;26;20099;-79
2022/05/26 05:11:16;;;;;;;1.27;1.10;;;;;;;34.79;26.05;98648.69;5437442;26;20063;-78
2022/05/26 05:13:44;;;;;;;2.92;1.30;;;;;;;34.84;27.35;98645.37;5416773;26;20114;-78
2022/05/26 05:16:30;;;;;;;2.55;1.30;;;;;;;33.98;27.88;98653.25;5436970;26;20097;-78
2022/05/26 05:18:58;;;;;;;1.42;1.20;;;;;;;34.34;27.81;98664.44;5437317;26;20051;-77
2022/05/26 05:21:42;;;;;;;3.00;1.30;;;;;;;33.50;28.24;98669.25;5416520;26;20059;-78
2022/05/26 05:24:23;;;;;;;3.83;1.50;;;;;;;32.41;30.22;98666.03;5437544;26;20420;-77
2022/05/26 05:26:52;;;;;;;3.50;1.40;;;;;;;31.67;31.28;98663.47;5437464;26;20401;-77
2022/05/26 05:29:22;;;;;;;2.33;1.20;;;;;;;30.96;33.72;98664.88;5416310;26;20126;-78
2022/05/26 05:31:55;;;;;;;2.17;1.30;;;;;;;32.34;30.64;98670.50;5437300;26;20565;-78
2022/05/26 05:34:26;;;;;;;2.12;1.20;;;;;;;32.04;31.51;98669.72;5417267;26;20121;-77
2022/05/26 05:36:53;;;;;;;2.45;1.20;;;;;;;33.94;29.27;98668.88;5437134;26;20098;-78
2022/05/26 05:39:20;;;;;;;1.75;1.15;;;;;;;34.19;27.36;98671.84;5436820;26;20077;-76
2022/05/26 05:41:47;;;;;;;4.43;1.30;;;;;;;33.69;28.38;98673.03;5436994;26;20086;-78
2022/05/26 05:44:14;;;;;;;2.37;1.30;;;;;;;34.43;27.71;98674.00;5437026;26;20125;-78
2022/05/26 05:46:53;;;;;;;3.10;1.45;;;;;;;34.76;27.24;98679.38;5437403;26;20125;-78
2022/05/26 05:49:22;;;;;;;3.12;1.35;;;;;;;33.42;29.04;98667.56;5436836;26;20057;-78
2022/05/26 05:51:50;;;;;;;1.60;1.30;;;;;;;31.31;32.56;98663.38;5437121;26;20371;-77
2022/05/26 05:54:18;;;;;;;2.33;1.37;;;;;;;31.76;32.12;98666.91;5434326;26;20464;-78
2022/05/26 05:56:46;;;;;;;3.53;1.48;;;;;;;30.03;33.96;98665.78;5433609;26;20110;-78
2022/05/26 05:59:14;;;;;;;3.30;1.40;;;;;;;31.65;32.11;98673.50;5435863;26;20114;-78
2022/05/26 06:01:42;;;;;;;2.05;1.40;;;;;;;29.41;36.29;98683.44;5435369;26;20116;-78
2022/05/26 06:04:11;;;;;;;2.70;1.15;;;;;;;28.22;38.37;98679.38;5435954;26;20065;-78
2022/05/26 06:06:42;;;;;;;2.22;1.30;;;;;;;29.56;35.83;98684.41;5436612;26;20051;-78
2022/05/26 06:09:20;;;;;;;2.10;1.48;;;;;;;29.14;36.85;98684.63;5416040;26;20055;-77
2022/05/26 06:11:48;;;;;;;3.95;1.33;;;;;;;29.63;35.15;98690.72;5435960;26;20055;-78
2022/05/26 06:14:16;;;;;;;3.62;1.33;;;;;;;28.24;37.50;98688.00;5436995;26;20173;-78
2022/05/26 06:16:45;;;;;;;3.42;1.40;;;;;;;28.68;37.92;98693.09;5436356;26;20054;-77
2022/05/26 06:19:12;;;;;;;2.42;1.40;;;;;;;28.58;37.64;98688.94;5435614;26;20164;-77
2022/05/26 06:21:39;;;;;;;4.47;1.60;;;;;;;28.62;37.64;98691.09;5435591;26;20118;-78
2022/05/26 06:24:07;;;;;;;3.55;1.40;;;;;;;29.03;36.96;98699.94;5436321;26;20551;-77
2022/05/26 06:26:34;;;;;;;3.50;1.40;;;;;;;27.89;38.17;98699.66;5435999;26;20457;-77
2022/05/26 06:37:28;;;;;;;3.62;1.70;;;;;;;26.67;43.02;98722.59;5436478;26;20358;-77
2022/05/26 06:39:55;;;;;;;5.03;2.28;;;;;;;26.33;43.32;98722.41;5435032;26;20106;-77
2022/05/26 06:42:24;;;;;;;6.03;2.17;;;;;;;26.33;45.54;98718.91;5435966;26;20126;-75
2022/05/26 06:44:51;;;;;;;6.45;2.20;;;;;;;25.98;47.34;98724.97;5436228;26;20421;-76
2022/05/26 06:47:20;;;;;;;6.05;2.40;;;;;;;26.31;46.24;98734.13;5435744;26;20047;-76
2022/05/26 06:49:48;;;;;;;5.07;1.62;;;;;;;26.80;45.76;98728.37;5435759;26;20062;-79
2022/05/26 06:52:17;;;;;;;4.00;1.85;;;;;;;27.22;43.10;98725.09;5435684;26;20393;-77
2022/05/26 06:54:45;;;;;;;2.70;1.80;;;;;;;26.74;41.78;98721.03;5435742;26;20363;-78
2022/05/26 06:57:13;;;;;;;4.70;1.50;;;;;;;27.32;41.87;98730.28;5435789;26;20397;-77
2022/05/26 06:59:40;;;;;;;3.40;1.80;;;;;;;27.19;40.51;98728.03;5435317;26;20046;-76
2022/05/26 07:02:09;;;;;;;2.97;1.77;;;;;;;27.33;40.55;98731.97;5435392;26;20114;-75
2022/05/26 07:04:37;;;;;;;6.65;2.17;;;;;;;28.20;38.65;98731.78;5436200;26;20114;-77
2022/05/26 07:07:04;;;;;;;4.30;1.50;;;;;;;27.96;40.20;98735.16;5435550;26;20064;-78
2022/05/26 07:09:31;;;;;;;3.85;1.42;;;;;;;28.33;37.98;98727.87;5435818;26;20342;-77
2022/05/26 07:11:58;;;;;;;3.50;1.60;;;;;;;27.82;37.96;98724.31;5435471;26;20114;-78
2022/05/26 07:14:26;;;;;;;2.87;1.40;;;;;;;28.35;38.77;98723.22;5435782;26;20103;-78
2022/05/26 07:16:53;;;;;;;3.60;1.40;;;;;;;28.31;37.22;98720.06;5435844;26;20101;-78
2022/05/26 07:19:20;;;;;;;2.92;1.40;;;;;;;28.11;38.95;98713.34;5436001;26;20409;-78
2022/05/26 07:21:51;;;;;;;3.00;1.27;;;;;;;28.96;36.68;98711.41;5434475;26;20073;-78
2022/05/26 07:24:23;;;;;;;3.08;1.60;;;;;;;29.34;35.53;98713.34;5436023;26;20375;-78
2022/05/26 07:26:51;;;;;;;5.28;1.58;;;;;;;28.16;37.89;98714.50;5436454;26;20443;-78
2022/05/26 07:29:22;;;;;;;3.45;1.27;;;;;;;27.93;38.87;98710.78;5435778;26;20082;-78
2022/05/26 07:31:49;;;;;;;2.70;1.27;;;;;;;27.58;37.82;98715.22;5434731;26;20148;-78
2022/05/26 07:34:18;;;;;;;4.72;1.30;;;;;;;27.32;40.39;98714.38;5415578;26;20055;-79
2022/05/26 07:42:20;;;;;;;7.55;1.35;;;;;;;27.59;39.76;98718.72;5435192;26;20074;-78
2022/05/26 07:44:49;;;;;;;2.20;1.50;;;;;;;28.26;37.58;98719.69;5415570;26;20137;-80
2022/05/26 07:47:16;;;;;;;4.65;1.50;;;;;;;27.71;38.37;98733.38;5435739;26;20068;-79
2022/05/26 07:49:47;;;;;;;3.58;1.70;;;;;;;27.12;39.18;98742.06;5435504;26;20114;-79
2022/05/26 07:52:18;;;;;;;4.30;1.70;;;;;;;26.83;40.59;98750.22;5435525;26;20086;-79
2022/05/26 07:54:45;;;;;;;3.55;1.58;;;;;;;26.67;41.50;98748.25;5435298;26;20075;-79
2022/05/26 07:57:27;;;;;;;2.85;1.50;;;;;;;26.72;42.46;98753.94;5434693;26;20042;-79
2022/05/26 07:59:54;;;;;;;4.68;1.60;;;;;;;26.56;40.61;98751.94;5435294;26;20098;-79
2022/05/26 08:02:22;;;;;;;3.35;1.73;;;;;;;26.71;41.19;98755.75;5435378;26;20051;-79
2022/05/26 08:04:50;;;;;;;3.47;1.80;;;;;;;27.00;41.63;98754.66;5435470;26;20081;-79
2022/05/26 08:07:17;;;;;;;3.53;1.50;;;;;;;26.72;42.56;98754.75;5435787;26;20046;-79
2022/05/26 08:09:44;;;;;;;2.65;1.62;;;;;;;26.68;41.68;98752.53;5435072;26;20634;-80
2022/05/26 08:12:12;;;;;;;2.78;1.50;;;;;;;27.21;41.04;98751.72;5414412;26;20063;-79
2022/05/26 08:14:41;;;;;;;3.67;1.48;;;;;;;27.28;40.83;98750.13;5436026;26;20086;-79
2022/05/26 08:17:11;;;;;;;6.68;1.60;;;;;;;27.26;40.15;98746.81;5435508;26;20047;-80
2022/05/26 08:19:38;;;;;;;5.43;1.80;;;;;;;27.10;40.04;98753.63;5415365;26;20043;-79
2022/05/26 08:22:05;;;;;;;2.62;1.40;;;;;;;26.80;40.35;98759.31;5434230;26;20063;-79
2022/05/26 08:24:33;;;;;;;4.15;1.80;;;;;;;27.34;38.93;98754.81;5435464;26;20059;-80
2022/05/26 08:27:00;;;;;;;6.57;2.37;;;;;;;27.33;38.63;98756.66;5436039;26;20138;-80
2022/05/26 08:29:27;;;;;;;10.98;5.70;;;;;;;26.80;39.69;98754.84;5435677;26;20106;-81
2022/05/26 08:31:54;;;;;;;5.57;2.35;;;;;;;27.73;38.71;98749.13;5434284;26;20059;-80
2022/05/26 08:34:21;;;;;;;9.43;4.45;;;;;;;28.00;38.20;98746.28;5435600;26;20059;-79
2022/05/26 08:36:48;;;;;;;5.05;1.98;;;;;;;27.86;37.82;98749.53;5435309;26;20050;-80
2022/05/26 08:39:16;;;;;;;20.35;10.30;;;;;;;28.19;36.08;98750.53;5435181;26;20047;-80
2022/05/26 08:41:46;;;;;;;6.93;2.60;;;;;;;29.70;34.03;98752.03;5434662;26;20110;-81
2022/05/26 08:44:34;;;;;;;6.43;2.33;;;;;;;29.80;34.05;98755.34;5436001;26;20095;-80
2022/05/26 08:47:14;;;;;;;3.20;1.75;;;;;;;30.32;32.82;98765.50;5415561;26;20106;-80
2022/05/26 08:49:59;;;;;;;3.65;1.50;;;;;;;30.34;32.45;98766.97;5436969;26;20046;-80
2022/05/26 08:52:34;;;;;;;3.90;1.55;;;;;;;29.93;33.64;98763.59;5436523;26;20085;-80
2022/05/26 08:55:15;;;;;;;3.75;1.30;;;;;;;31.34;30.96;98756.31;5416866;26;20090;-79
2022/05/26 08:58:06;;;;;;;2.33;1.48;;;;;;;31.72;30.41;98778.47;5415945;26;20054;-79
2022/05/26 09:00:37;;;;;;;6.90;1.58;;;;;;;31.02;30.54;98776.06;5435353;26;20055;-79
2022/05/26 09:03:26;;;;;;;5.00;1.40;;;;;;;30.10;31.45;98770.56;5436745;26;20051;-79
2022/05/26 09:06:02;;;;;;;6.75;1.58;;;;;;;29.84;31.30;98767.28;5436501;26;20055;-77
2022/05/26 09:14:08;;;;;;;2.78;1.20;;;;;;;29.67;31.19;98775.31;5436436;26;20066;-80
2022/05/26 09:16:42;;;;;;;3.30;1.10;;;;;;;29.86;30.29;98763.44;5436634;26;20082;-80
2022/05/26 09:19:16;;;;;;;8.00;1.90;;;;;;;30.64;29.23;98775.16;5436719;26;20472;-79
2022/05/26 09:21:45;;;;;;;2.17;1.20;;;;;;;29.95;30.48;98774.91;5435400;26;20168;-78
2022/05/26 09:24:33;;;;;;;2.87;1.20;;;;;;;30.50;29.42;98776.69;5395582;26;20055;-78
2022/05/26 09:27:07;;;;;;;3.70;1.40;;;;;;;29.08;30.72;98771.16;5415244;26;20119;-78
2022/05/26 09:29:37;;;;;;;3.78;1.58;;;;;;;29.33;31.25;98772.81;5435491;26;20051;-78
2022/05/26 09:32:06;;;;;;;3.62;1.20;;;;;;;28.14;35.82;98779.34;5414586;26;20122;-78
2022/05/26 09:35:13;;;;;;;3.05;1.45;;;;;;;28.94;32.13;98772.66;5435487;26;20055;-78
2022/05/26 09:37:43;;;;;;;3.78;1.30;;;;;;;29.42;31.46;98772.81;5436097;26;20419;-78
2022/05/26 09:40:19;;;;;;;4.68;1.30;;;;;;;30.21;30.03;98772.84;5437325;26;20423;-78
2022/05/26 09:42:51;;;;;;;2.60;1.25;;;;;;;31.16;29.54;98780.63;5437015;26;20106;-78
2022/05/26 09:45:19;;;;;;;3.12;1.50;;;;;;;30.72;29.44;98773.25;5437402;26;20070;-78
2022/05/26 09:47:53;;;;;;;2.40;1.35;;;;;;;30.67;29.10;98780.13;5416889;26;20110;-77
2022/05/26 09:50:45;;;;;;;1.15;0.93;;;;;;;30.73;28.93;98782.06;5437125;26;20107;-78
2022/05/26 09:53:13;;;;;;;1.90;1.10;;;;;;;30.12;30.44;98784.53;5437177;26;20042;-78
2022/05/26 09:55:47;;;;;;;3.90;1.35;;;;;;;30.37;29.21;98779.09;5436652;26;20055;-78
2022/05/26 09:58:27;;;;;;;1.50;1.20;;;;;;;30.01;29.88;98773.41;5437028;26;20110;-78
2022/05/26 10:00:59;;;;;;;2.60;1.20;;;;;;;29.37;30.87;98768.84;5437089;26;20096;-78
2022/05/26 10:03:48;;;;;;;2.40;1.20;;;;;;;29.81;30.81;98757.81;5434649;26;20409;-79
2022/05/26 10:06:35;;;;;;;1.73;1.20;;;;;;;29.31;30.87;98758.87;5434304;26;20114;-79
2022/05/26 10:09:18;;;;;;;5.05;1.30;;;;;;;29.36;30.85;98766.34;5415802;26;20409;-78
2022/05/26 10:12:04;;;;;;;4.32;1.30;;;;;;;29.20;31.96;98767.19;5435540;26;20065;-79
2022/05/26 10:14:35;;;;;;;1.27;1.00;;;;;;;29.53;31.09;98765.34;5415753;26;20468;-79
2022/05/26 10:17:24;;;;;;;2.17;1.00;;;;;;;29.51;29.65;98761.22;5435247;26;20086;-79
2022/05/26 10:20:12;;;;;;;2.60;1.20;;;;;;;29.37;31.75;98763.53;5435948;26;20451;-79
2022/05/26 10:23:05;;;;;;;4.25;1.30;;;;;;;29.79;31.06;98767.81;5436269;26;20349;-79
2022/05/26 10:25:52;;;;;;;2.45;1.25;;;;;;;29.72;31.41;98772.13;5436047;26;20367;-79
2022/05/26 10:28:57;;;;;;;2.17;1.20;;;;;;;29.83;32.10;98761.13;5415706;26;20496;-79
2022/05/26 10:32:07;;;;;;;5.12;1.30;;;;;;;30.02;32.66;98762.59;5434791;26;20110;-80
2022/05/26 10:34:55;;;;;;;6.40;1.20;;;;;;;30.76;31.09;98763.09;5342526;26;20067;-80
2022/05/26 10:37:46;;;;;;;2.97;1.40;;;;;;;30.10;32.06;98767.91;5341998;26;20508;-80
2022/05/26 10:40:45;;;;;;;3.90;1.00;;;;;;;30.04;32.48;98757.09;5417368;26;20083;-80
2022/05/26 10:43:40;;;;;;;1.70;1.20;;;;;;;29.56;33.19;98765.03;5398815;26;20111;-79
2022/05/26 10:46:09;;;;;;;4.07;1.20;;;;;;;29.54;34.21;98759.03;5435294;26;20064;-79
2022/05/26 10:48:43;;;;;;;2.03;1.20;;;;;;;30.08;31.67;98761.06;5436444;26;20316;-79
2022/05/26 10:51:21;;;;;;;2.55;1.10;;;;;;;30.88;31.59;98756.34;5414776;26;20071;-80
2022/05/26 10:54:08;;;;;;;3.95;1.20;;;;;;;30.85;27.66;98743.37;5436058;26;20483;-77
2022/05/26 10:56:48;;;;;;;1.30;1.10;;;;;;;30.38;28.60;98752.28;5435748;26;20058;-78
2022/05/26 10:59:26;;;;;;;1.67;1.12;;;;;;;30.29;31.55;98752.50;5415602;26;20088;-78
2022/05/26 11:02:25;;;;;;;2.75;1.10;;;;;;;30.43;29.45;98743.78;5414981;26;20059;-78
2022/05/26 11:04:59;;;;;;;1.98;1.10;;;;;;;31.00;28.24;98738.09;5421121;26;20059;-78
2022/05/26 11:07:42;;;;;;;7.53;1.62;;;;;;;31.24;28.86;98737.91;5415610;26;20544;-78
2022/05/26 11:10:21;;;;;;;3.95;1.20;;;;;;;30.14;28.61;98741.78;5414561;26;20075;-78
2022/05/26 11:13:01;;;;;;;2.85;1.02;;;;;;;29.28;31.29;98735.28;5415919;26;20078;-78
2022/05/26 11:18:26;;;;;;;4.00;1.15;;;;;;;29.84;29.09;98736.19;5436085;26;20055;-77
2022/05/26 11:20:54;;;;;;;3.17;1.35;;;;;;;29.24;29.90;98739.28;5434426;26;20117;-77
2022/05/26 11:23:22;;;;;;;1.67;0.90;;;;;;;29.31;30.88;98729.63;5436187;26;20051;-78
2022/05/26 11:25:49;;;;;;;1.37;1.00;;;;;;;29.60;32.53;98737.09;5414802;26;20075;-77
2022/05/26 11:28:40;;;;;;;3.95;1.20;;;;;;;29.07;32.46;98730.50;5435297;26;20050;-78
2022/05/26 11:37:27;;;;;;;1.48;0.90;;;;;;;29.55;30.89;98718.16;5433267;26;20110;-77
2022/05/26 11:39:58;;;;;;;1.87;0.98;;;;;;;29.43;27.62;98723.97;5435249;26;20046;-78
2022/05/26 11:42:34;;;;;;;2.87;1.10;;;;;;;29.77;26.72;98721.91;5414374;26;20405;-77
2022/05/26 11:45:33;;;;;;;3.67;1.50;;;;;;;29.14;28.78;98720.03;5414679;26;20401;-77
2022/05/26 11:48:33;;;;;;;1.58;1.00;;;;;;;29.79;28.87;98721.75;5414821;26;20063;-78
2022/05/26 11:51:05;;;;;;;2.30;1.10;;;;;;;30.24;26.58;98723.75;5434963;26;20051;-78
2022/05/26 11:53:38;;;;;;;0.82;0.75;;;;;;;30.79;27.85;98723.59;5414935;26;20078;-78
2022/05/26 11:56:23;;;;;;;4.68;1.20;;;;;;;30.91;27.71;98713.34;5434816;26;20071;-78
2022/05/26 11:59:26;;;;;;;2.45;1.00;;;;;;;30.86;27.37;98714.91;5435349;26;20093;-78
2022/05/26 12:01:59;;;;;;;3.05;1.00;;;;;;;29.96;27.79;98710.03;5434293;26;20086;-78
2022/05/26 12:04:37;;;;;;;3.70;1.12;;;;;;;29.49;28.01;98707.38;5435647;26;20047;-78
2022/05/26 12:07:37;;;;;;;1.77;1.00;;;;;;;29.87;28.92;98717.22;5435596;26;20428;-79
2022/05/26 12:10:28;;;;;;;2.33;1.00;;;;;;;30.31;29.90;98710.59;5414283;26;20118;-79
2022/05/26 12:13:21;;;;;;;3.15;1.23;;;;;;;30.28;28.06;98708.25;5435573;26;20397;-79
2022/05/26 12:16:19;;;;;;;5.05;1.27;;;;;;;30.86;28.53;98702.41;5434257;26;20129;-78
2022/05/26 12:18:54;;;;;;;2.37;1.00;;;;;;;31.26;29.27;98698.59;5435299;26;20067;-78
2022/05/26 12:21:29;;;;;;;2.72;1.00;;;;;;;29.74;29.88;98689.53;5434555;26;20158;-78
2022/05/26 12:24:35;;;;;;;2.15;0.93;;;;;;;29.46;28.45;98689.09;5436698;26;20054;-78
2022/05/26 12:27:02;;;;;;;3.87;1.23;;;;;;;30.66;28.26;98690.59;5436700;26;20106;-78
2022/05/26 12:29:47;;;;;;;4.28;1.02;;;;;;;31.10;27.09;98683.53;5436446;26;20070;-78
2022/05/26 12:32:21;;;;;;;1.95;1.05;;;;;;;30.46;27.00;98692.84;5436740;26;20075;-78
2022/05/26 12:35:26;;;;;;;3.67;1.10;;;;;;;30.13;30.14;98679.75;5436822;26;20063;-78
2022/05/26 12:38:23;;;;;;;3.20;1.10;;;;;;;29.37;30.13;98683.78;5436453;26;20114;-78
2022/05/26 12:41:04;;;;;;;1.95;1.12;;;;;;;29.70;32.05;98688.22;5435963;26;20118;-78
2022/05/26 12:43:52;;;;;;;4.22;1.20;;;;;;;29.55;32.37;98688.91;5436864;26;20077;-78
2022/05/26 12:46:31;;;;;;;5.18;1.25;;;;;;;29.74;31.13;98686.84;5436108;26;20134;-78